^^
Station Historical Data
Daily Summary for May 27, 2017 Units:  Metric    English   Both
« Previous Day
Next Day »
Daily Weekly Monthly Yearly Custom
  High: Low: Average:
Temperature: 19.2 °C 8.6 °C 13.1 °C
Dew Point: 8.3 °C -2.2 °C 3.6 °C
Humidity: 87% 28% 56%
Wind Speed: 30.6km/h 0km/h 12.7km/h
Wind Gust: 33.8km/h - -
Wind- - South
Pressure: 1025.6 hPa 1017.8 hPa -
Precipitation: 0 mm    
Historical Graphs
 
 
Tabular Data for May 27, 2017
Time Temperature Dew Point Pressure Wind Wind Speed Wind Gust Humidity Rainfall Rate (Hourly) solar Conditions
03:11 11.1 °C 8.3 °C 1018.2 hPa WSW 14.3 km/h 20.9 km/h 83% 0 mm 0.0 W/m2
03:16 11.1 °C 8.3 °C 1018.5 hPa WSW 19.5 km/h 22.5 km/h 83% 0 mm 0.0 W/m2
03:21 11.1 °C 8.3 °C 1018.2 hPa WSW 19.5 km/h 19.5 km/h 83% 0 mm 0.0 W/m2
03:26 11.1 °C 8.3 °C 1018.2 hPa WSW 20.9 km/h 24.1 km/h 83% 0 mm 0.0 W/m2
03:31 11 °C 8.2 °C 1018.2 hPa WSW 19.5 km/h 22.5 km/h 83% 0 mm 0.0 W/m2
03:36 11.1 °C 8.1 °C 1018.2 hPa WSW 16.3 km/h 19.3 km/h 82% 0 mm 0.0 W/m2
03:41 11.1 °C 8.1 °C 1018.2 hPa WSW 16.3 km/h 17.7 km/h 82% 0 mm 0.0 W/m2
03:46 11 °C 8 °C 1018.2 hPa WSW 19.5 km/h 22.5 km/h 82% 0 mm 0.0 W/m2
03:51 10.8 °C 8 °C 1017.8 hPa WSW 19.5 km/h 20.9 km/h 83% 0 mm 0.0 W/m2
03:57 10.7 °C 7.9 °C 1018.2 hPa WSW 14.3 km/h 14.5 km/h 83% 0 mm 0.0 W/m2
04:07 10.4 °C 8 °C 1018.2 hPa WSW 14.3 km/h 19.3 km/h 85% 0 mm 0.0 W/m2
04:11 10.4 °C 8 °C 1018.5 hPa WSW 16.3 km/h 24.1 km/h 85% 0 mm 0.0 W/m2
04:17 10.4 °C 8 °C 1018.5 hPa WSW 16.3 km/h 17.7 km/h 85% 0 mm 0.0 W/m2
04:32 10.2 °C 7.8 °C 1018.5 hPa WSW 16.3 km/h 19.3 km/h 85% 0 mm 0.0 W/m2
04:47 10.1 °C 7.9 °C 1018.8 hPa WSW 22.7 km/h 22.7 km/h 86% 0 mm 0.0 W/m2
04:52 10.1 °C 7.9 °C 1018.8 hPa WSW 22.7 km/h 25.7 km/h 86% 0 mm 0.0 W/m2
04:57 10.2 °C 8 °C 1018.8 hPa WSW 11.1 km/h 20.9 km/h 86% 0 mm 0.0 W/m2
05:02 10.3 °C 8.1 °C 1019.2 hPa WSW 13 km/h 24.1 km/h 86% 0 mm 0.0 W/m2
05:07 10.4 °C 8 °C 1019.2 hPa WSW 17.7 km/h 24.1 km/h 85% 0 mm 0.0 W/m2
05:12 10.5 °C 8.1 °C 1018.8 hPa SW 20.9 km/h 22.5 km/h 85% 0 mm 0.0 W/m2
05:17 10.6 °C 8 °C 1019.2 hPa SW 14.3 km/h 20.9 km/h 84% 0 mm 0.0 W/m2
05:22 10.6 °C 8 °C 1019.2 hPa SW 24.1 km/h 24.1 km/h 84% 0 mm 0.0 W/m2
05:27 10.6 °C 8 °C 1019.2 hPa SW 17.7 km/h 25.7 km/h 84% 0 mm 0.0 W/m2
05:32 10.6 °C 8 °C 1018.8 hPa SW 20.9 km/h 25.7 km/h 84% 0 mm 0.0 W/m2
05:42 10.4 °C 7.8 °C 1019.2 hPa SW 13 km/h 14.5 km/h 84% 0 mm 0.0 W/m2
05:47 10.2 °C 7.8 °C 1019.2 hPa SW 14.3 km/h 16.1 km/h 85% 0 mm 0.0 W/m2
05:52 10.2 °C 7.8 °C 1019.2 hPa SW 14.3 km/h 16.1 km/h 85% 0 mm 0.0 W/m2
05:57 10.1 °C 7.7 °C 1018.8 hPa SW 9.7 km/h 12.9 km/h 85% 0 mm 0.0 W/m2
06:02 9.9 °C 7.7 °C 1018.8 hPa SW 9.7 km/h 11.3 km/h 86% 0 mm 0.0 W/m2
06:07 9.8 °C 7.6 °C 1019.2 hPa SW 6.4 km/h 9.7 km/h 86% 0 mm 0.0 W/m2
06:23 9.5 °C 7.4 °C 1019.5 hPa SW 11.1 km/h 16.1 km/h 87% 0 mm 0.0 W/m2
06:38 9.9 °C 7.8 °C 1019.9 hPa SW 20.9 km/h 24.1 km/h 87% 0 mm 21.0 W/m2
06:49 10.1 °C 7.9 °C 1019.9 hPa SSW 11.1 km/h 20.9 km/h 86% 0 mm 23.0 W/m2
06:58 10.4 °C 8 °C 1020.2 hPa SSW 20.9 km/h 24.1 km/h 85% 0 mm 37.0 W/m2
08:03 11.2 °C 7.7 °C 1020.9 hPa SSW 16.3 km/h 22.5 km/h 79% 0 mm 97.0 W/m2
08:20 11.3 °C 7.6 °C 1021.2 hPa SSW 20.9 km/h 22.5 km/h 78% 0 mm 98.0 W/m2
08:29 11.2 °C 7.7 °C 1021.6 hPa SSW 19.5 km/h 22.5 km/h 79% 0 mm 174.0 W/m2
08:34 11.3 °C 7.6 °C 1021.6 hPa SSW 20.9 km/h 25.7 km/h 78% 0 mm 146.0 W/m2
08:39 11.3 °C 7.8 °C 1021.6 hPa SSW 22.7 km/h 24.1 km/h 79% 0 mm 134.0 W/m2
08:49 11.6 °C 7.9 °C 1021.9 hPa SSW 22.7 km/h 25.7 km/h 78% 0 mm 120.0 W/m2
08:54 11.5 °C 7.6 °C 1022.2 hPa SSW 17.7 km/h 29 km/h 77% 0 mm 100.0 W/m2
09:04 11.6 °C 7.5 °C 1022.2 hPa SSW 19.5 km/h 24.1 km/h 76% 0 mm 172.0 W/m2
09:14 11.9 °C 7.4 °C 1022.6 hPa SSW 19.5 km/h 27.4 km/h 74% 0 mm 246.0 W/m2
09:19 12.1 °C 7.4 °C 1022.6 hPa SSW 22.7 km/h 25.7 km/h 73% 0 mm 246.0 W/m2
09:25 12.6 °C 7.7 °C 1022.6 hPa SSW 20.9 km/h 24.1 km/h 72% 0 mm 415.0 W/m2
09:31 12.7 °C 7.4 °C 1022.6 hPa South 20.9 km/h 33.8 km/h 70% 0 mm 204.0 W/m2
09:36 12.4 °C 7.5 °C 1022.9 hPa South 20.9 km/h 32.2 km/h 72% 0 mm 264.0 W/m2
09:41 12.4 °C 7.3 °C 1022.9 hPa South 30.6 km/h 30.6 km/h 71% 0 mm 221.0 W/m2
09:50 12.4 °C 7.3 °C 1022.9 hPa South 27.4 km/h 29 km/h 71% 0 mm 211.0 W/m2
10:00 12.7 °C 7.4 °C 1022.9 hPa South 16.3 km/h 22.5 km/h 70% 0 mm 559.0 W/m2
10:05 12.9 °C 7.6 °C 1022.6 hPa South 11.1 km/h 14.5 km/h 70% 0 mm 541.0 W/m2
10:15 13.3 °C 6.9 °C 1022.6 hPa South 13 km/h 22.5 km/h 65% 0 mm 552.0 W/m2
10:25 13.8 °C 6.4 °C 1022.6 hPa South 9.7 km/h 19.3 km/h 61% 0 mm 568.0 W/m2
10:30 14.1 °C 6.2 °C 1022.2 hPa South 9.7 km/h 16.1 km/h 59% 0 mm 575.0 W/m2
10:35 14.4 °C 6 °C 1022.2 hPa South 11.1 km/h 16.1 km/h 57% 0 mm 580.0 W/m2
10:45 14.7 °C 6.3 °C 1022.6 hPa South 6.4 km/h 14.5 km/h 57% 0 mm 592.0 W/m2
10:55 15.4 °C 5.6 °C 1022.2 hPa South 16.3 km/h 24.1 km/h 52% 0 mm 599.0 W/m2
11:00 15.7 °C 5.6 °C 1022.2 hPa South 14.3 km/h 19.3 km/h 51% 0 mm 606.0 W/m2
11:10 16.2 °C 4.6 °C 1022.2 hPa South 24.1 km/h 29 km/h 46% 0 mm 613.0 W/m2
11:15 16.4 °C 4.4 °C 1022.2 hPa South 17.7 km/h 32.2 km/h 45% 0 mm 617.0 W/m2
11:25 16.8 °C 4.8 °C 1022.2 hPa SSE 20.9 km/h 25.7 km/h 45% 0 mm 621.0 W/m2
11:30 16.9 °C 4.2 °C 1022.6 hPa SSE 16.3 km/h 27.4 km/h 43% 0 mm 624.0 W/m2
11:35 16.8 °C 4.5 °C 1022.2 hPa South 16.3 km/h 32.2 km/h 44% 0 mm 622.0 W/m2
11:45 16.7 °C 4.7 °C 1022.2 hPa SSE 22.7 km/h 29 km/h 45% 0 mm 622.0 W/m2
11:50 16.9 °C 4.9 °C 1022.2 hPa SSE 22.7 km/h 29 km/h 45% 0 mm 622.0 W/m2
11:55 16.8 °C 5.1 °C 1022.2 hPa SSE 13 km/h 27.4 km/h 46% 0 mm 619.0 W/m2
12:05 16.9 °C 4.9 °C 1021.9 hPa SSE 16.3 km/h 27.4 km/h 45% 0 mm 619.0 W/m2
12:10 16.9 °C 5.2 °C 1021.9 hPa SSE 9.7 km/h 20.9 km/h 46% 0 mm 617.0 W/m2
12:20 17.2 °C 4.8 °C 1021.6 hPa SSE 9.7 km/h 24.1 km/h 44% 0 mm 613.0 W/m2
12:30 17.4 °C 4.7 °C 1021.6 hPa SSE 19.5 km/h 24.1 km/h 43% 0 mm 606.0 W/m2
12:40 17.6 °C 4.2 °C 1021.2 hPa SSE 24.1 km/h 27.4 km/h 41% 0 mm 599.0 W/m2
12:45 17.6 °C 4.5 °C 1021.2 hPa SSE 14.3 km/h 20.9 km/h 42% 0 mm 596.0 W/m2
12:50 17.6 °C 4.5 °C 1021.2 hPa SSE 19.5 km/h 22.5 km/h 42% 0 mm 589.0 W/m2
13:15 18.3 °C 3.7 °C 1020.9 hPa SSE 19.5 km/h 19.5 km/h 38% 0 mm 543.0 W/m2
13:25 18.7 °C 2.9 °C 1020.9 hPa SSE 19.5 km/h 27.4 km/h 35% 0 mm 545.0 W/m2
13:30 18.7 °C 2.9 °C 1020.9 hPa SSE 17.7 km/h 25.7 km/h 35% 0 mm 536.0 W/m2
13:35 18.8 °C 2.6 °C 1020.9 hPa SSE 19.5 km/h 30.6 km/h 34% 0 mm 526.0 W/m2
13:41 18.9 °C 2.3 °C 1020.9 hPa SSE 19.5 km/h 24.1 km/h 33% 0 mm 517.0 W/m2
13:51 18.8 °C 2.6 °C 1020.9 hPa SSE 16.3 km/h 24.1 km/h 34% 0 mm 501.0 W/m2
13:57 18.9 °C 2.7 °C 1020.9 hPa SSE 14.3 km/h 27.4 km/h 34% 0 mm 489.0 W/m2
14:02 19.1 °C 2 °C 1020.5 hPa SSE 24.1 km/h 27.4 km/h 32% 0 mm 483.0 W/m2
14:11 19 °C 1.9 °C 1020.9 hPa SSE 20.9 km/h 32.2 km/h 32% 0 mm 462.0 W/m2
14:16 19.1 °C 1.6 °C 1020.9 hPa SSE 25.9 km/h 25.9 km/h 31% 0 mm 448.0 W/m2
14:21 19.1 °C 1.1 °C 1020.9 hPa SE 20.9 km/h 27.4 km/h 30% 0 mm 438.0 W/m2
14:27 19.1 °C 1.1 °C 1020.9 hPa SSE 19.5 km/h 25.7 km/h 30% 0 mm 422.0 W/m2
14:34 19.2 °C 1.2 °C 1021.2 hPa SSE 17.7 km/h 30.6 km/h 30% 0 mm 413.0 W/m2
15:12 19.1 °C 0.6 °C 1021.2 hPa SSE 16.3 km/h 27.4 km/h 29% 0 mm 325.0 W/m2
15:26 19.2 °C 0.2 °C 1021.2 hPa SSE 17.7 km/h 25.7 km/h 28% 0 mm 281.0 W/m2
15:36 19.1 °C 0.6 °C 1021.2 hPa SSE 27.4 km/h 27.4 km/h 29% 0 mm 250.0 W/m2
15:50 18.9 °C 0.5 °C 1021.2 hPa SSE 20.9 km/h 30.6 km/h 29% 0 mm 204.0 W/m2
16:00 18.8 °C 0.4 °C 1021.2 hPa SSE 17.7 km/h 27.4 km/h 29% 0 mm 160.0 W/m2
16:10 18.8 °C -0.1 °C 1021.2 hPa SSE 20.9 km/h 22.5 km/h 28% 0 mm 123.0 W/m2
16:20 18.7 °C -0.2 °C 1021.6 hPa SSE 19.5 km/h 19.5 km/h 28% 0 mm 84.0 W/m2
16:57 17.9 °C -0.4 °C 1021.9 hPa SSE 16.3 km/h 20.9 km/h 29% 0 mm 9.0 W/m2
17:27 17.2 °C -1 °C 1022.2 hPa SSE 13 km/h 17.7 km/h 29% 0 mm 0.0 W/m2
17:41 16.8 °C -1.3 °C 1022.6 hPa SSE 13 km/h 14.5 km/h 29% 0 mm 0.0 W/m2
17:52 16.5 °C -1.1 °C 1022.6 hPa SSE 9.7 km/h 16.1 km/h 30% 0 mm 0.0 W/m2
18:07 16.1 °C -1.5 °C 1022.9 hPa SSE 13 km/h 13 km/h 30% 0 mm 0.0 W/m2
18:33 15.5 °C -1.6 °C 1023.2 hPa SSE 7.9 km/h 11.3 km/h 31% 0 mm 0.0 W/m2
18:49 15.1 °C -1.1 °C 1023.6 hPa SSE 9.7 km/h 12.9 km/h 33% 0 mm 0.0 W/m2
19:04 14.6 °C -1.9 °C 1023.9 hPa SSE 9.7 km/h 9.7 km/h 32% 0 mm 0.0 W/m2
19:34 13.4 °C -2.2 °C 1023.9 hPa Calm     34% 0 mm 0.0 W/m2
20:04 12.1 °C -2.2 °C 1024.6 hPa Calm     37% 0 mm 0.0 W/m2
20:19 12.8 °C -1.2 °C 1024.9 hPa Calm     38% 0 mm 0.0 W/m2
20:29 12.9 °C -1.4 °C 1024.9 hPa Calm     37% 0 mm 0.0 W/m2
20:49 12.7 °C -1.3 °C 1024.9 hPa Calm     38% 0 mm 0.0 W/m2
20:57 12 °C -1.2 °C 1024.9 hPa Calm     40% 0 mm 0.0 W/m2
21:06 11.5 °C -1 °C 1025.3 hPa Calm     42% 0 mm 0.0 W/m2
21:11 11.5 °C -1 °C 1025.3 hPa Calm     42% 0 mm 0.0 W/m2
21:16 11.3 °C -1.5 °C 1024.9 hPa Calm     41% 0 mm 0.0 W/m2
21:23 10.9 °C -1.8 °C 1024.9 hPa Calm     41% 0 mm 0.0 W/m2
21:33 10.3 °C -1.4 °C 1025.3 hPa Calm     44% 0 mm 0.0 W/m2
21:38 10.1 °C -1.6 °C 1025.3 hPa Calm     44% 0 mm 0.0 W/m2
21:48 9.4 °C -1.6 °C 1025.3 hPa Calm     46% 0 mm 0.0 W/m2
21:53 9.9 °C -1.2 °C 1024.9 hPa Calm     46% 0 mm 0.0 W/m2
21:58 10.5 °C -1.2 °C 1025.3 hPa Calm     44% 0 mm 0.0 W/m2
22:03 10.8 °C -1.3 °C 1025.3 hPa Calm     43% 0 mm 0.0 W/m2
22:08 10.6 °C -1.2 °C 1025.3 hPa Calm     44% 0 mm 0.0 W/m2
22:13 10.6 °C -1.2 °C 1025.3 hPa Calm     44% 0 mm 0.0 W/m2
22:18 10.6 °C -1.2 °C 1025.3 hPa Calm     44% 0 mm 0.0 W/m2
22:23 10.5 °C -1.2 °C 1025.3 hPa Calm     44% 0 mm 0.0 W/m2
22:28 10.3 °C -1.4 °C 1025.3 hPa Calm     44% 0 mm 0.0 W/m2
22:38 9.8 °C -1.6 °C 1025.3 hPa Calm     45% 0 mm 0.0 W/m2
22:44 9.6 °C -1.5 °C 1025.3 hPa Calm     46% 0 mm 0.0 W/m2
22:49 9.4 °C -1.3 °C 1025.3 hPa Calm     47% 0 mm 0.0 W/m2
22:54 9.2 °C -1.5 °C 1025.3 hPa Calm     47% 0 mm 0.0 W/m2
22:59 8.9 °C -1.8 °C 1025.3 hPa Calm     47% 0 mm 0.0 W/m2
23:05 8.7 °C -1.4 °C 1025.3 hPa Calm     49% 0 mm 0.0 W/m2
23:10 8.6 °C -1.2 °C 1025.3 hPa Calm     50% 0 mm 0.0 W/m2
23:15 8.6 °C -1 °C 1025.3 hPa Calm     51% 0 mm 0.0 W/m2
23:21 8.6 °C -1 °C 1025.3 hPa Calm     51% 0 mm 0.0 W/m2
23:31 9.6 °C -0.3 °C 1025.3 hPa Calm     50% 0 mm 0.0 W/m2
23:36 10.3 °C -0.5 °C 1025.3 hPa Calm     47% 0 mm 0.0 W/m2
23:42 10.3 °C -0.8 °C 1025.3 hPa Calm     46% 0 mm 0.0 W/m2
23:47 10.2 °C -0.9 °C 1025.6 hPa Calm     46% 0 mm 0.0 W/m2
23:52 10.1 °C -0.7 °C 1025.6 hPa Calm     47% 0 mm 0.0 W/m2
23:57 9.9 °C -0.6 °C 1025.6 hPa Calm     48% 0 mm 0.0 W/m2
Canyon Roadhouse, Fishriver Canyon, Namibia
Compliments of Weather Underground - 2.25 mb